createdAt,value
2023-08-15T00:03:03.225Z,5.45
2023-08-15T00:06:06.203Z,5.47
2023-08-15T00:09:10.222Z,7.40
2023-08-15T00:12:13.111Z,7.45
2023-08-15T00:15:16.936Z,6.80
2023-08-15T00:18:20.203Z,6.53
2023-08-15T00:21:23.909Z,6.28
2023-08-15T00:24:27.476Z,5.90
2023-08-15T00:27:31.338Z,4.85
2023-08-15T00:30:35.108Z,4.75
2023-08-15T00:33:38.484Z,4.47
2023-08-15T00:36:41.768Z,3.90
2023-08-15T00:39:45.807Z,5.00
2023-08-15T00:42:49.436Z,5.18
2023-08-15T00:45:53.874Z,4.90
2023-08-15T00:49:00.488Z,5.03
2023-08-15T00:52:05.555Z,4.80
2023-08-15T00:55:11.359Z,4.13
2023-08-15T00:58:14.933Z,3.88
2023-08-15T01:01:19.532Z,4.95
2023-08-15T01:04:23.682Z,4.05
2023-08-15T01:07:27.059Z,5.97
2023-08-15T01:10:31.287Z,3.87
2023-08-15T01:14:01.722Z,3.20
2023-08-15T01:17:07.325Z,3.65
2023-08-15T01:20:16.211Z,3.63
2023-08-15T01:23:30.697Z,3.33
2023-08-15T01:26:34.509Z,4.30
2023-08-15T01:29:37.867Z,3.38
2023-08-15T01:32:46.709Z,3.47
2023-08-15T01:35:57.429Z,3.25
2023-08-15T01:39:04.821Z,3.75
2023-08-15T01:42:08.857Z,3.87
2023-08-15T01:45:13.389Z,3.58
2023-08-15T01:48:17.348Z,3.78
2023-08-15T01:51:20.452Z,3.60
2023-08-15T01:54:23.538Z,3.47
2023-08-15T01:57:26.850Z,4.00
2023-08-15T02:00:29.907Z,3.75
2023-08-15T02:03:32.799Z,4.18
2023-08-15T02:06:37.171Z,4.28
2023-08-15T02:09:40.820Z,3.50
2023-08-15T02:12:43.721Z,3.50
2023-08-15T02:15:47.528Z,3.70
2023-08-15T02:18:50.979Z,3.88
2023-08-15T02:21:54.020Z,4.43
2023-08-15T02:24:57.687Z,4.00
2023-08-15T02:28:03.109Z,4.30
2023-08-15T02:31:07.326Z,3.72
2023-08-15T02:34:10.867Z,5.80
2023-08-15T02:37:14.900Z,3.88
2023-08-15T02:40:18.691Z,3.90
2023-08-15T02:43:22.715Z,3.90
2023-08-15T02:46:28.594Z,3.78
2023-08-15T02:49:32.911Z,3.92
2023-08-15T02:52:36.703Z,3.45
2023-08-15T02:55:40.622Z,3.17
2023-08-15T02:58:44.439Z,3.00
2023-08-15T03:01:49.711Z,3.47
2023-08-15T03:04:53.116Z,3.70
2023-08-15T03:07:57.180Z,3.55
2023-08-15T03:11:01.026Z,3.80
2023-08-15T03:14:05.218Z,3.67
2023-08-15T03:17:09.412Z,3.97
2023-08-15T03:20:14.075Z,3.60
2023-08-15T03:23:18.289Z,3.65
2023-08-15T03:26:22.296Z,3.58
2023-08-15T03:29:26.296Z,3.70
2023-08-15T03:32:30.087Z,3.97
2023-08-15T03:35:33.851Z,4.32
2023-08-15T03:38:37.911Z,4.22
2023-08-15T03:41:41.630Z,4.40
2023-08-15T03:44:45.666Z,4.93
2023-08-15T03:47:48.675Z,6.88
2023-08-15T03:50:54.147Z,6.80
2023-08-15T03:53:57.172Z,6.90
2023-08-15T03:57:00.490Z,7.53
2023-08-15T04:00:03.679Z,6.57
2023-08-15T04:03:17.744Z,5.57
2023-08-15T04:06:21.983Z,5.70
2023-08-15T04:09:25.114Z,6.57
2023-08-15T04:12:28.137Z,4.55
2023-08-15T04:15:32.316Z,5.10
2023-08-15T04:18:37.330Z,4.80
2023-08-15T04:21:41.173Z,4.72
2023-08-15T04:24:44.503Z,5.10
2023-08-15T04:27:47.530Z,4.55
2023-08-15T04:30:51.622Z,4.40
2023-08-15T04:33:54.576Z,4.63
2023-08-15T04:36:57.965Z,4.85
2023-08-15T04:40:01.710Z,4.72
2023-08-15T04:43:05.996Z,6.07
2023-08-15T04:46:09.437Z,3.60
2023-08-15T04:49:12.921Z,3.85
2023-08-15T04:52:17.968Z,3.55
2023-08-15T04:55:21.469Z,3.22
2023-08-15T04:58:24.484Z,3.10
2023-08-15T05:01:27.852Z,3.63
2023-08-15T05:04:31.967Z,3.22
2023-08-15T05:07:35.675Z,7.28
2023-08-15T05:10:39.795Z,4.05
2023-08-15T05:13:45.471Z,5.10
2023-08-15T05:16:49.540Z,4.17
2023-08-15T05:19:53.688Z,4.03
2023-08-15T05:22:57.502Z,3.85
2023-08-15T05:26:01.816Z,3.60
2023-08-15T05:29:05.855Z,3.50
2023-08-15T05:32:09.621Z,4.10
2023-08-15T05:35:13.755Z,4.10
2023-08-15T05:38:18.494Z,3.63
2023-08-15T05:41:22.217Z,3.22
2023-08-15T05:44:26.649Z,3.30
2023-08-15T05:47:30.342Z,3.20
2023-08-15T05:50:34.130Z,3.45
2023-08-15T05:53:37.775Z,3.95
2023-08-15T05:56:43.012Z,2.90
2023-08-15T05:59:46.817Z,2.60
2023-08-15T06:02:50.909Z,2.53
2023-08-15T06:06:00.187Z,2.53
2023-08-15T06:09:04.120Z,2.47
2023-08-15T06:12:08.248Z,2.80
2023-08-15T06:15:12.486Z,2.60
2023-08-15T06:18:16.179Z,3.53
2023-08-15T06:21:20.128Z,3.15
2023-08-15T06:24:23.480Z,3.38
2023-08-15T06:27:27.834Z,2.97
2023-08-15T06:30:31.446Z,2.88
2023-08-15T06:33:35.094Z,3.17
2023-08-15T06:36:38.916Z,3.22
2023-08-15T06:39:42.610Z,3.17
2023-08-15T06:42:45.531Z,2.97
2023-08-15T06:45:49.504Z,3.13
2023-08-15T06:48:53.000Z,2.60
2023-08-15T06:51:56.870Z,2.80
2023-08-15T06:58:04.773Z,3.30
2023-08-15T07:01:08.979Z,3.55
2023-08-15T07:04:13.632Z,9.47
2023-08-15T07:07:17.878Z,4.65
2023-08-15T07:10:21.330Z,3.90
2023-08-15T07:13:25.452Z,4.03
2023-08-15T07:16:28.435Z,2.80
2023-08-15T07:19:33.697Z,2.37
2023-08-15T07:22:37.889Z,2.60
2023-08-15T07:25:45.404Z,2.35
2023-08-15T07:28:49.065Z,2.30
2023-08-15T07:31:52.957Z,2.30
2023-08-15T07:34:57.102Z,2.20
2023-08-15T07:38:02.029Z,2.47
2023-08-15T07:41:05.112Z,2.33
2023-08-15T07:44:08.730Z,2.90
2023-08-15T07:47:12.471Z,1.90
2023-08-15T07:50:24.581Z,1.50
2023-08-15T07:53:28.567Z,1.60
2023-08-15T07:56:33.428Z,1.70
2023-08-15T07:59:37.704Z,1.85
2023-08-15T08:02:42.376Z,1.80
2023-08-15T08:05:46.081Z,2.53
2023-08-15T08:08:49.401Z,1.70
2023-08-15T08:11:53.890Z,1.92
2023-08-15T08:14:58.195Z,1.98
2023-08-15T08:18:01.286Z,2.20
2023-08-15T08:21:06.837Z,2.20
2023-08-15T08:24:09.880Z,2.42
2023-08-15T08:27:13.438Z,1.83
2023-08-15T08:30:19.869Z,3.33
2023-08-15T08:33:23.169Z,2.60
2023-08-15T08:36:26.227Z,3.00
2023-08-15T08:39:32.677Z,2.50
2023-08-15T08:42:36.748Z,2.00
2023-08-15T08:45:44.776Z,2.30
2023-08-15T08:48:49.295Z,2.15
2023-08-15T08:51:53.133Z,2.20
2023-08-15T08:54:57.763Z,2.10
2023-08-15T08:58:04.457Z,1.90
2023-08-15T09:01:09.203Z,1.90
2023-08-15T09:04:12.769Z,3.20
2023-08-15T09:07:20.521Z,2.30
2023-08-15T09:10:24.955Z,2.28
2023-08-15T09:13:28.606Z,2.40
2023-08-15T09:16:33.086Z,2.03
2023-08-15T09:19:42.257Z,2.40
2023-08-15T09:22:48.292Z,2.30
2023-08-15T09:25:56.053Z,2.53
2023-08-15T09:28:59.301Z,2.95
2023-08-15T09:32:03.012Z,3.05
2023-08-15T09:35:07.474Z,2.88
2023-08-15T09:38:10.833Z,2.80
2023-08-15T09:41:15.025Z,2.72
2023-08-15T09:44:34.968Z,3.17
2023-08-15T09:47:42.494Z,3.10
2023-08-15T09:50:47.435Z,2.88
2023-08-15T09:53:51.597Z,2.57
2023-08-15T09:56:55.778Z,2.75
2023-08-15T09:59:59.149Z,3.00
2023-08-15T10:03:10.476Z,3.17
2023-08-15T10:06:15.695Z,2.97
2023-08-15T10:09:19.718Z,3.73
2023-08-15T10:12:23.611Z,4.80
2023-08-15T10:15:28.432Z,3.97
2023-08-15T10:18:33.139Z,3.97
2023-08-15T10:21:53.328Z,3.92
2023-08-15T10:24:57.114Z,3.60
2023-08-15T10:28:00.964Z,4.18
2023-08-15T10:31:05.315Z,4.15
2023-08-15T10:34:13.211Z,4.47
2023-08-15T10:37:39.186Z,4.20
2023-08-15T10:40:45.072Z,3.23
2023-08-15T10:43:54.475Z,3.17
2023-08-15T10:46:58.394Z,3.97
2023-08-15T10:50:02.049Z,3.60
2023-08-15T10:53:07.254Z,4.30
2023-08-15T10:56:11.635Z,3.37
2023-08-15T10:59:16.732Z,3.50
2023-08-15T11:02:20.372Z,3.15
2023-08-15T11:05:23.550Z,2.53
2023-08-15T11:08:27.225Z,2.88
2023-08-15T11:11:35.967Z,4.57
2023-08-15T11:14:39.573Z,8.32
2023-08-15T11:17:52.614Z,3.90
2023-08-15T11:20:55.790Z,3.30
2023-08-15T11:24:02.647Z,3.50
2023-08-15T11:27:06.209Z,3.20
2023-08-15T11:30:11.019Z,3.13
2023-08-15T11:33:14.212Z,3.00
2023-08-15T11:36:18.041Z,3.90
2023-08-15T11:39:21.835Z,3.97
2023-08-15T11:42:26.395Z,3.67
2023-08-15T11:45:33.760Z,4.20
2023-08-15T11:48:37.745Z,5.30
2023-08-15T11:51:41.223Z,9.30
2023-08-15T11:54:48.156Z,8.27
2023-08-15T11:57:53.766Z,6.90
2023-08-15T12:01:09.138Z,9.45
2023-08-15T12:04:15.780Z,13.10
2023-08-15T12:07:21.448Z,20.85
2023-08-15T12:10:26.396Z,25.73
2023-08-15T12:13:34.174Z,25.87
2023-08-15T12:16:41.459Z,24.23
2023-08-15T12:19:45.531Z,18.65
2023-08-15T12:22:49.535Z,14.13
2023-08-15T12:25:52.935Z,14.82
2023-08-15T12:28:56.997Z,11.87
2023-08-15T12:32:01.884Z,11.18
2023-08-15T12:35:06.447Z,8.43
2023-08-15T12:38:10.438Z,8.48
2023-08-15T12:41:15.604Z,28.80
2023-08-15T12:44:19.322Z,6.53
2023-08-15T12:47:24.046Z,6.00
2023-08-15T12:50:28.409Z,6.10
2023-08-15T12:53:32.944Z,5.32
2023-08-15T12:56:37.260Z,7.45
2023-08-15T12:59:41.431Z,5.80
2023-08-15T13:02:45.084Z,6.13
2023-08-15T13:05:49.233Z,8.23
2023-08-15T13:08:54.026Z,7.70
2023-08-15T13:11:58.866Z,6.18
2023-08-15T13:15:02.533Z,6.37
2023-08-15T13:18:07.534Z,12.02
2023-08-15T13:21:11.948Z,6.80
2023-08-15T13:27:43.715Z,6.07
2023-08-15T13:30:49.131Z,5.90
2023-08-15T13:33:52.904Z,7.18
2023-08-15T13:36:57.855Z,4.50
2023-08-15T13:40:02.197Z,4.72
2023-08-15T13:43:07.022Z,4.43
2023-08-15T13:46:12.198Z,5.13
2023-08-15T13:49:16.919Z,6.22
2023-08-15T13:52:21.534Z,5.35
2023-08-15T13:55:26.548Z,5.53
2023-08-15T13:58:30.923Z,5.85
2023-08-15T14:01:35.817Z,4.70
2023-08-15T14:04:39.656Z,4.93
2023-08-15T14:07:44.182Z,4.78
2023-08-15T14:10:47.823Z,5.00
2023-08-15T14:13:51.885Z,4.90
2023-08-15T14:16:56.234Z,4.20
2023-08-15T14:19:59.997Z,4.32
2023-08-15T14:23:04.913Z,4.68
2023-08-15T14:26:08.688Z,4.13
2023-08-15T14:29:12.740Z,4.88
2023-08-15T14:32:15.686Z,5.67
2023-08-15T14:35:21.264Z,4.65
2023-08-15T14:38:25.242Z,4.43
2023-08-15T14:41:29.010Z,3.90
2023-08-15T14:44:34.284Z,3.90
2023-08-15T14:47:41.320Z,3.97
2023-08-15T14:50:45.203Z,4.82
2023-08-15T14:53:49.359Z,6.78
2023-08-15T14:56:53.002Z,4.72
2023-08-15T14:59:57.007Z,4.53
2023-08-15T15:03:01.163Z,4.60
2023-08-15T15:06:04.614Z,4.38
2023-08-15T15:09:07.574Z,4.10
2023-08-15T15:12:11.495Z,3.90
2023-08-15T15:15:15.212Z,4.03
2023-08-15T15:18:18.810Z,4.30
2023-08-15T15:21:21.678Z,3.28
2023-08-15T15:24:24.934Z,3.70
2023-08-15T15:27:28.382Z,3.90
2023-08-15T15:30:31.916Z,3.45
2023-08-15T15:33:35.415Z,2.53
2023-08-15T15:36:38.710Z,3.25
2023-08-15T15:39:42.194Z,3.22
2023-08-15T15:42:45.033Z,3.03
2023-08-15T15:45:48.092Z,4.70
2023-08-15T15:48:51.964Z,3.17
2023-08-15T15:51:55.764Z,3.55
2023-08-15T15:54:59.223Z,7.50
2023-08-15T15:58:02.064Z,3.85
2023-08-15T16:01:06.228Z,2.92
2023-08-15T16:04:10.641Z,3.40
2023-08-15T16:07:16.520Z,2.80
2023-08-15T16:10:19.993Z,2.70
2023-08-15T16:13:24.698Z,3.47
2023-08-15T16:16:28.008Z,3.05
2023-08-15T16:19:31.013Z,2.53
2023-08-15T16:22:34.984Z,2.75
2023-08-15T16:25:37.979Z,3.00
2023-08-15T16:28:42.438Z,2.95
2023-08-15T16:31:46.125Z,3.63
2023-08-15T16:34:49.411Z,2.97
2023-08-15T16:37:52.516Z,5.43
2023-08-15T16:40:56.476Z,3.30
2023-08-15T16:44:00.255Z,2.70
2023-08-15T16:47:04.765Z,3.15
2023-08-15T16:50:08.377Z,3.50
2023-08-15T16:53:12.290Z,3.10
2023-08-15T16:56:17.759Z,3.42
2023-08-15T16:59:21.888Z,3.33
2023-08-15T17:02:26.077Z,3.13
2023-08-15T17:05:30.357Z,2.87
2023-08-15T17:08:34.445Z,3.08
2023-08-15T17:11:37.702Z,2.97
2023-08-15T17:14:41.610Z,2.92
2023-08-15T17:17:45.681Z,3.15
2023-08-15T17:20:48.717Z,2.87
2023-08-15T17:23:52.628Z,2.90
2023-08-15T17:26:56.283Z,2.55
2023-08-15T17:29:59.551Z,2.90
2023-08-15T17:33:02.506Z,2.63
2023-08-15T17:36:06.763Z,2.47
2023-08-15T17:39:10.508Z,2.70
2023-08-15T17:42:14.446Z,2.50
2023-08-15T17:45:18.271Z,3.25
2023-08-15T17:48:21.534Z,2.80
2023-08-15T17:51:24.619Z,2.33
2023-08-15T17:54:28.187Z,2.45
2023-08-15T17:57:31.389Z,2.30
2023-08-15T18:00:35.505Z,2.63
2023-08-15T18:03:39.222Z,2.30
2023-08-15T18:06:42.747Z,2.57
2023-08-15T18:09:45.841Z,2.35
2023-08-15T18:12:49.850Z,2.65
2023-08-15T18:15:53.628Z,2.40
2023-08-15T18:18:57.981Z,2.92
2023-08-15T18:22:01.442Z,2.53
2023-08-15T18:25:05.699Z,2.20
2023-08-15T18:28:09.914Z,2.30
2023-08-15T18:31:13.622Z,2.47
2023-08-15T18:34:17.246Z,3.30
2023-08-15T18:37:21.634Z,2.47
2023-08-15T18:40:24.588Z,2.60
2023-08-15T18:43:27.921Z,2.28
2023-08-15T18:46:30.968Z,2.70
2023-08-15T18:49:34.304Z,2.90
2023-08-15T18:52:37.333Z,2.70
2023-08-15T18:55:41.530Z,2.53
2023-08-15T18:58:47.782Z,2.72
2023-08-15T19:01:51.951Z,2.78
2023-08-15T19:04:59.747Z,2.92
2023-08-15T19:08:03.156Z,2.77
2023-08-15T19:11:06.791Z,3.10
2023-08-15T19:14:11.086Z,2.85
2023-08-15T19:17:14.455Z,2.47
2023-08-15T19:20:27.595Z,3.10
2023-08-15T19:23:31.132Z,2.57
2023-08-15T19:26:35.338Z,2.67
2023-08-15T19:29:38.344Z,2.90
2023-08-15T19:32:42.032Z,2.63
2023-08-15T19:35:47.176Z,2.30
2023-08-15T19:38:51.500Z,2.60
2023-08-15T19:41:54.408Z,2.92
2023-08-15T19:44:58.619Z,3.20
2023-08-15T19:48:01.648Z,3.35
2023-08-15T19:51:05.642Z,3.55
2023-08-15T19:54:08.628Z,3.10
2023-08-15T19:57:12.683Z,2.85
2023-08-15T20:00:15.821Z,3.55
2023-08-15T20:03:19.654Z,3.13
2023-08-15T20:06:22.636Z,3.63
2023-08-15T20:09:26.340Z,3.53
2023-08-15T20:12:29.888Z,3.85
2023-08-15T20:15:33.243Z,5.72
2023-08-15T20:18:36.262Z,6.15
2023-08-15T20:21:39.299Z,5.75
2023-08-15T20:24:42.879Z,4.17
2023-08-15T20:27:46.565Z,4.00
2023-08-15T20:30:49.567Z,4.03
2023-08-15T20:33:53.614Z,3.80
2023-08-15T20:36:57.191Z,4.10
2023-08-15T20:40:00.487Z,4.67
2023-08-15T20:43:03.532Z,4.78
2023-08-15T20:46:06.798Z,4.47
2023-08-15T20:49:10.308Z,5.82
2023-08-15T20:52:14.037Z,4.88
2023-08-15T20:55:18.222Z,4.57
2023-08-15T20:58:22.333Z,4.10
2023-08-15T21:01:25.517Z,4.22
2023-08-15T21:04:28.918Z,4.55
2023-08-15T21:07:32.597Z,4.70
2023-08-15T21:10:36.432Z,3.87
2023-08-15T21:13:39.744Z,3.97
2023-08-15T21:16:42.781Z,4.38
2023-08-15T21:19:46.450Z,4.05
2023-08-15T21:22:50.121Z,4.50
2023-08-15T21:25:54.072Z,3.57
2023-08-15T21:28:57.078Z,4.45
2023-08-15T21:32:01.211Z,3.70
2023-08-15T21:35:05.103Z,3.72
2023-08-15T21:38:08.427Z,3.83
2023-08-15T21:41:12.008Z,4.07
2023-08-15T21:44:15.406Z,4.03
2023-08-15T21:47:19.130Z,5.05
2023-08-15T21:50:23.065Z,5.03
2023-08-15T21:53:26.683Z,6.72
2023-08-15T21:56:31.885Z,5.10
2023-08-15T21:59:35.158Z,5.28
2023-08-15T22:02:39.497Z,5.95
2023-08-15T22:05:48.226Z,5.70
2023-08-15T22:08:52.612Z,6.22
2023-08-15T22:11:55.559Z,5.47
2023-08-15T22:14:59.643Z,6.03
2023-08-15T22:18:17.771Z,6.35
2023-08-15T22:21:23.488Z,5.55
2023-08-15T22:24:26.511Z,5.50
2023-08-15T22:27:30.198Z,5.43
2023-08-15T22:30:33.301Z,6.10
2023-08-15T22:33:36.291Z,6.07
2023-08-15T22:36:39.870Z,5.53
2023-08-15T22:39:43.340Z,5.80
2023-08-15T22:42:46.322Z,5.90
2023-08-15T22:45:49.676Z,5.70
2023-08-15T22:48:53.027Z,6.05
2023-08-15T22:51:57.188Z,6.20
2023-08-15T22:55:00.864Z,6.32
2023-08-15T22:58:03.839Z,5.93
2023-08-15T23:01:07.847Z,6.40
2023-08-15T23:04:10.848Z,7.50
2023-08-15T23:07:14.544Z,7.57
2023-08-15T23:10:17.871Z,7.57
2023-08-15T23:13:22.636Z,8.20
2023-08-15T23:16:26.693Z,8.65
2023-08-15T23:19:29.921Z,9.32
2023-08-15T23:22:33.188Z,9.10
2023-08-15T23:25:36.431Z,9.70
2023-08-15T23:28:40.501Z,10.47
2023-08-15T23:31:43.521Z,10.80
2023-08-15T23:34:46.871Z,9.52
2023-08-15T23:37:49.951Z,11.00
2023-08-15T23:40:54.002Z,10.68
2023-08-15T23:43:57.683Z,10.70
2023-08-15T23:47:01.793Z,10.15
2023-08-15T23:50:07.085Z,10.85
2023-08-15T23:53:10.668Z,10.52
2023-08-15T23:56:14.557Z,10.82
2023-08-15T23:59:18.606Z,11.37
